»·PEaware :: N5973U KGEG-KGEG

N5973U :: KGEG-KGEG

FLIGHT INFORMATION

Flight Status: Arrived
Operator: Privately registered:
United States
More flights under this callsign
Pilot: Christopher S. (2105)
Aircraft: BEECH AIRCRAFT BONANZA
(BE36)
More flights by this aircraft type
Origin: KGEG Spokane Intl
United States
Destination: KGEG Spokane Intl
United States
More flights between these airports :: More routes between these airports
Route: +GEG
File this flight plan on PilotEdge
Remarks: PRACTICE INSTRUMENT APPROACH
Altitude:
(Current/Filed)
4,000ft
Speed:
(Current/Filed)
150kts
Departed: 09-Nov-17 01:49 PM
Arrived: 09-Nov-17 02:46 PM
Distance/Time
Traveled:
0nm/0:57
Distance/Time
To Go:
Arrived

Flight Plot

Page will automatically refresh every two minutes.


Map Options




Map Legend


Flown Route
Filed Route
Departure Airport
Arrival Airport
Navaid (VOR, NDB)
Fix

Horizontal Profiles

Position Reports

Time Latitude Longitude Heading Altitude Ground
Speed
09-Nov-17 13:25 47.618559 -117.525996 270 2379ft 0kts
09-Nov-17 13:26 47.618559 -117.525996 270 2379ft 0kts
09-Nov-17 13:27 47.618552 -117.526097 256 2379ft 0kts
09-Nov-17 13:28 47.618552 -117.526097 256 2379ft 0kts
09-Nov-17 13:29 47.618552 -117.526097 256 2379ft 0kts
09-Nov-17 13:30 47.618552 -117.526097 256 2379ft 0kts
09-Nov-17 13:31 47.618552 -117.526097 256 2379ft 0kts
09-Nov-17 13:32 47.618669 -117.526418 313 2379ft 0kts
09-Nov-17 13:33 47.618669 -117.526418 313 2379ft 0kts
09-Nov-17 13:34 47.618669 -117.526418 313 2379ft 0kts
09-Nov-17 13:35 47.618669 -117.526418 313 2379ft 0kts
09-Nov-17 13:36 47.618669 -117.526418 313 2379ft 0kts
09-Nov-17 13:37 47.618669 -117.526418 313 2379ft 0kts
09-Nov-17 13:38 47.618669 -117.526418 313 2379ft 0kts
09-Nov-17 13:39 47.618669 -117.526418 313 2379ft 0kts
09-Nov-17 13:40 47.618669 -117.526418 313 2379ft 0kts
09-Nov-17 13:41 47.618669 -117.526418 313 2379ft 0kts
09-Nov-17 13:42 47.618669 -117.526418 313 2379ft 0kts
09-Nov-17 13:43 47.618693 -117.526456 311 2379ft 1kts
09-Nov-17 13:44 47.618491 -117.525628 107 2379ft 3kts
09-Nov-17 13:45 47.617909 -117.527585 271 2379ft 8kts
09-Nov-17 13:46 47.617938 -117.531575 268 2379ft 10kts
09-Nov-17 13:47 47.618052 -117.535998 272 2379ft 11kts
09-Nov-17 13:48 47.618169 -117.540637 268 2379ft 11kts
09-Nov-17 13:49 47.618165 -117.545279 270 2379ft 11kts
09-Nov-17 13:50 47.618242 -117.549947 275 2379ft 11kts
09-Nov-17 13:51 47.617899 -117.553073 172 2378ft 0kts
09-Nov-17 13:52 47.617899 -117.553073 172 2378ft 0kts
09-Nov-17 13:53 47.616965 -117.552824 94 2379ft 0kts
09-Nov-17 13:54 47.617125 -117.534866 89 2592ft 88kts
09-Nov-17 13:55 47.608136 -117.503237 136 3685ft 86kts
09-Nov-17 13:56 47.592715 -117.476180 134 4748ft 89kts
09-Nov-17 13:57 47.573549 -117.465425 195 5637ft 76kts
09-Nov-17 13:58 47.549445 -117.474393 197 6023ft 111kts
09-Nov-17 13:59 47.516507 -117.485913 193 6003ft 126kts
09-Nov-17 14:00 47.490266 -117.518420 223 6075ft 126kts
09-Nov-17 14:01 47.466580 -117.557677 224 6014ft 131kts
09-Nov-17 14:02 47.442119 -117.597757 224 5982ft 131kts
09-Nov-17 14:03 47.417425 -117.636922 223 5982ft 130kts
09-Nov-17 14:04 47.405852 -117.681953 306 5975ft 157kts
09-Nov-17 14:05 47.441666 -117.721593 314 5507ft 154kts
09-Nov-17 14:06 47.481491 -117.719261 24 4980ft 160kts
09-Nov-17 14:07 47.516426 -117.689051 37 4474ft 134kts
09-Nov-17 14:08 47.543165 -117.651175 49 4074ft 127kts
09-Nov-17 14:09 47.568367 -117.611892 43 3946ft 137kts
09-Nov-17 14:10 47.594075 -117.573986 44 2824ft 121kts
09-Nov-17 14:11 47.616937 -117.539712 46 2467ft 117kts
09-Nov-17 14:12 47.639015 -117.510648 12 3320ft 106kts
09-Nov-17 14:13 47.649867 -117.530929 220 4099ft 112kts
09-Nov-17 14:14 47.620678 -117.558910 218 4188ft 129kts
09-Nov-17 14:15 47.594788 -117.592368 222 4273ft 119kts
09-Nov-17 14:16 47.568065 -117.620040 214 4201ft 114kts
09-Nov-17 14:17 47.537497 -117.625318 181 4183ft 116kts
09-Nov-17 14:18 47.511115 -117.640980 243 4256ft 109kts
09-Nov-17 14:19 47.526557 -117.676536 359 4207ft 146kts
09-Nov-17 14:20 47.558991 -117.638597 55 4164ft 153kts
09-Nov-17 14:21 47.567654 -117.584277 137 4113ft 134kts
09-Nov-17 14:22 47.541228 -117.596949 220 4140ft 106kts
09-Nov-17 14:23 47.519412 -117.625823 228 4161ft 108kts
09-Nov-17 14:24 47.537894 -117.657055 359 4200ft 144kts
09-Nov-17 14:25 47.571025 -117.620334 58 4160ft 151kts
09-Nov-17 14:26 47.553938 -117.595407 220 4164ft 107kts
09-Nov-17 14:27 47.531212 -117.623373 213 4229ft 105kts
09-Nov-17 14:28 47.508708 -117.650960 240 4250ft 107kts
09-Nov-17 14:29 47.533095 -117.676366 18 4563ft 161kts
09-Nov-17 14:30 47.564790 -117.625747 52 5067ft 172kts
09-Nov-17 14:31 47.555303 -117.578390 186 5015ft 134kts
09-Nov-17 14:32 47.520662 -117.589828 193 5117ft 126kts
09-Nov-17 14:33 47.484495 -117.598922 193 5006ft 129kts
09-Nov-17 14:34 47.449196 -117.608297 214 4986ft 127kts
09-Nov-17 14:35 47.454710 -117.658994 284 5000ft 138kts
09-Nov-17 14:36 47.469973 -117.711411 284 5000ft 139kts
09-Nov-17 14:37 47.485162 -117.763816 284 5000ft 139kts
09-Nov-17 14:38 47.499920 -117.816982 284 4999ft 138kts
09-Nov-17 14:39 47.514351 -117.868448 284 4999ft 134kts
09-Nov-17 14:40 47.528455 -117.919186 275 4996ft 130kts
09-Nov-17 14:41 47.502053 -117.941038 191 4991ft 125kts
09-Nov-17 14:42 47.485830 -117.892278 104 4637ft 152kts
09-Nov-17 14:43 47.479608 -117.829905 103 4104ft 149kts
09-Nov-17 14:44 47.486954 -117.774869 73 4086ft 130kts
09-Nov-17 14:45 47.499809 -117.724826 73 4094ft 135kts
09-Nov-17 14:46 47.523460 -117.679191 47 4092ft 144kts
09-Nov-17 14:47 47.552902 -117.636009 44 3949ft 155kts
09-Nov-17 14:48 47.582103 -117.592173 46 3207ft 136kts
09-Nov-17 14:49 47.603840 -117.559797 47 2597ft 95kts
09-Nov-17 14:50 47.618579 -117.537185 48 2379ft 46kts
09-Nov-17 14:51 47.620799 -117.532077 137 2378ft 0kts
09-Nov-17 14:52 47.619484 -117.530737 186 2379ft 12kts
09-Nov-17 14:53 47.618775 -117.528573 73 2379ft 14kts

Navigation Log

Ident Type
Flight plan parsing failed, navigation log unavailable